MLM weather

General Francisco J. Mujica International Airport
Morelia, Michoacin, Mexico

Public forecast

Using degrees Celsius for public forecast. Weather courtesy of forecast.io.

Current aviation weather report (METAR) for General Francisco J. Mujica International Airport

Retrieved 2019/10/20 22:44 UTC (58 minutes ago):

MMMM 202244Z 14013KT 10SM SCT025 22/14 A3007 RMK 8/500 CB DSNT ESE AC CI

Aviation forecast (TAF) for General Francisco J. Mujica International Airport

Retrieved 2019/10/20 18:14 UTC (5 hours ago):

TAF COR MMMM 201807Z 2018/2124 18010KT 4SM -RA BKN015 OVC070 TX22/2020Z TN15/2112Z TEMPO 2018/2022 3SM RA BKN010 OVC020CB FM210000 16005KT 3SM -RA BR BKN008 OVC015 FM210600 00000KT 3SM DZ BR OVC010 TEMPO 2111/2115 1SM DZ BR FM211600 19006KT 4SM HZ BKN015 BKN080 FM211800 17008KT 6SM HZ SCT020 SCT080